sensor_id;sensor_type;location;lat;lon;timestamp;temperature;humidity
48043;DHT22;33988;47.992;8.820;2022-11-04T00:00:22;14.00;69.20
48043;DHT22;33988;47.992;8.820;2022-11-04T00:02:55;14.00;69.10
48043;DHT22;33988;47.992;8.820;2022-11-04T00:05:24;13.90;69.00
48043;DHT22;33988;47.992;8.820;2022-11-04T00:07:54;13.90;69.10
48043;DHT22;33988;47.992;8.820;2022-11-04T00:10:39;13.90;69.00
48043;DHT22;33988;47.992;8.820;2022-11-04T00:13:27;13.90;69.00
48043;DHT22;33988;47.992;8.820;2022-11-04T00:16:01;13.80;68.90
48043;DHT22;33988;47.992;8.820;2022-11-04T00:18:47;13.80;68.90
48043;DHT22;33988;47.992;8.820;2022-11-04T00:21:16;13.70;68.90
48043;DHT22;33988;47.992;8.820;2022-11-04T00:24:02;13.70;68.80
48043;DHT22;33988;47.992;8.820;2022-11-04T00:26:51;13.70;68.90
48043;DHT22;33988;47.992;8.820;2022-11-04T00:29:36;13.70;68.90
48043;DHT22;33988;47.992;8.820;2022-11-04T00:32:06;13.70;69.00
48043;DHT22;33988;47.992;8.820;2022-11-04T00:34:53;13.70;69.00
48043;DHT22;33988;47.992;8.820;2022-11-04T00:37:23;13.60;68.90
48043;DHT22;33988;47.992;8.820;2022-11-04T00:39:50;13.60;68.90
48043;DHT22;33988;47.992;8.820;2022-11-04T00:42:17;13.60;68.90
48043;DHT22;33988;47.992;8.820;2022-11-04T00:44:50;13.60;68.90
48043;DHT22;33988;47.992;8.820;2022-11-04T00:47:17;13.60;68.80
48043;DHT22;33988;47.992;8.820;2022-11-04T00:49:49;13.70;68.90
48043;DHT22;33988;47.992;8.820;2022-11-04T00:52:18;13.60;68.70
48043;DHT22;33988;47.992;8.820;2022-11-04T00:54:48;13.60;68.60
48043;DHT22;33988;47.992;8.820;2022-11-04T00:57:17;13.60;68.60
48043;DHT22;33988;47.992;8.820;2022-11-04T00:59:44;13.60;68.70
48043;DHT22;33988;47.992;8.820;2022-11-04T01:02:14;13.60;68.70
48043;DHT22;33988;47.992;8.820;2022-11-04T01:04:45;13.60;68.80
48043;DHT22;33988;47.992;8.820;2022-11-04T01:07:12;13.60;68.80
48043;DHT22;33988;47.992;8.820;2022-11-04T01:09:42;13.60;68.80
48043;DHT22;33988;47.992;8.820;2022-11-04T01:12:11;13.60;68.80
48043;DHT22;33988;47.992;8.820;2022-11-04T01:14:40;13.60;68.80
48043;DHT22;33988;47.992;8.820;2022-11-04T01:17:09;13.60;68.80
48043;DHT22;33988;47.992;8.820;2022-11-04T01:19:36;13.60;68.60
48043;DHT22;33988;47.992;8.820;2022-11-04T01:22:02;13.50;68.50
48043;DHT22;33988;47.992;8.820;2022-11-04T01:24:32;13.50;68.50
48043;DHT22;33988;47.992;8.820;2022-11-04T01:26:59;13.50;68.60
48043;DHT22;33988;47.992;8.820;2022-11-04T01:29:26;13.50;68.70
48043;DHT22;33988;47.992;8.820;2022-11-04T01:31:52;13.50;68.70
48043;DHT22;33988;47.992;8.820;2022-11-04T01:34:19;13.50;68.80
48043;DHT22;33988;47.992;8.820;2022-11-04T01:36:46;13.50;68.80
48043;DHT22;33988;47.992;8.820;2022-11-04T01:39:13;13.50;68.80
48043;DHT22;33988;47.992;8.820;2022-11-04T01:41:43;13.60;68.80
48043;DHT22;33988;47.992;8.820;2022-11-04T01:49:49;13.50;68.70
48043;DHT22;33988;47.992;8.820;2022-11-04T01:52:41;13.60;68.80
48043;DHT22;33988;47.992;8.820;2022-11-04T01:55:15;13.50;68.70
48043;DHT22;33988;47.992;8.820;2022-11-04T01:57:47;13.50;68.70
48043;DHT22;33988;47.992;8.820;2022-11-04T02:00:16;13.50;68.70
48043;DHT22;33988;47.992;8.820;2022-11-04T02:02:58;13.60;68.80
48043;DHT22;33988;47.992;8.820;2022-11-04T02:05:27;13.50;68.70
48043;DHT22;33988;47.992;8.820;2022-11-04T02:07:57;13.60;68.70
48043;DHT22;33988;47.992;8.820;2022-11-04T02:10:30;13.60;68.60
48043;DHT22;33988;47.992;8.820;2022-11-04T02:13:00;13.60;68.70
48043;DHT22;33988;47.992;8.820;2022-11-04T02:18:46;13.50;68.70
48043;DHT22;33988;47.992;8.820;2022-11-04T02:34:09;13.50;68.70
48043;DHT22;33988;47.992;8.820;2022-11-04T02:36:46;13.50;68.70
48043;DHT22;33988;47.992;8.820;2022-11-04T02:39:37;13.50;68.70
48043;DHT22;33988;47.992;8.820;2022-11-04T02:42:40;13.50;68.70
48043;DHT22;33988;47.992;8.820;2022-11-04T02:48:16;13.50;68.60
48043;DHT22;33988;47.992;8.820;2022-11-04T02:51:06;13.50;68.40
48043;DHT22;33988;47.992;8.820;2022-11-04T02:53:47;13.50;68.50
48043;DHT22;33988;47.992;8.820;2022-11-04T02:56:21;13.50;68.50
48043;DHT22;33988;47.992;8.820;2022-11-04T02:58:55;13.50;68.50
48043;DHT22;33988;47.992;8.820;2022-11-04T03:01:31;13.50;68.60
48043;DHT22;33988;47.992;8.820;2022-11-04T03:04:14;13.50;68.50
48043;DHT22;33988;47.992;8.820;2022-11-04T03:06:48;13.50;68.50
48043;DHT22;33988;47.992;8.820;2022-11-04T03:09:22;13.50;68.40
48043;DHT22;33988;47.992;8.820;2022-11-04T03:11:54;13.50;68.40
48043;DHT22;33988;47.992;8.820;2022-11-04T03:14:36;13.50;68.40
48043;DHT22;33988;47.992;8.820;2022-11-04T03:17:14;13.50;68.30
48043;DHT22;33988;47.992;8.820;2022-11-04T03:19:58;13.50;68.30
48043;DHT22;33988;47.992;8.820;2022-11-04T03:22:29;13.40;68.30
48043;DHT22;33988;47.992;8.820;2022-11-04T03:25:03;13.50;68.30
48043;DHT22;33988;47.992;8.820;2022-11-04T03:30:09;13.40;68.20
48043;DHT22;33988;47.992;8.820;2022-11-04T03:35:57;13.30;68.20
48043;DHT22;33988;47.992;8.820;2022-11-04T03:38:24;13.40;68.30
48043;DHT22;33988;47.992;8.820;2022-11-04T03:40:51;13.40;68.20
48043;DHT22;33988;47.992;8.820;2022-11-04T03:43:25;13.40;68.20
48043;DHT22;33988;47.992;8.820;2022-11-04T03:45:54;13.30;68.10
48043;DHT22;33988;47.992;8.820;2022-11-04T03:48:21;13.30;68.10
48043;DHT22;33988;47.992;8.820;2022-11-04T03:50:51;13.30;68.10
48043;DHT22;33988;47.992;8.820;2022-11-04T03:53:20;13.30;68.10
48043;DHT22;33988;47.992;8.820;2022-11-04T04:04:55;13.20;68.00
48043;DHT22;33988;47.992;8.820;2022-11-04T04:07:36;13.20;68.10
48043;DHT22;33988;47.992;8.820;2022-11-04T04:16:07;13.10;68.10
48043;DHT22;33988;47.992;8.820;2022-11-04T04:18:51;13.00;68.00
48043;DHT22;33988;47.992;8.820;2022-11-04T04:21:30;13.10;68.10
48043;DHT22;33988;47.992;8.820;2022-11-04T04:24:03;13.10;68.00
48043;DHT22;33988;47.992;8.820;2022-11-04T04:26:50;13.00;68.00
48043;DHT22;33988;47.992;8.820;2022-11-04T04:29:37;13.00;68.00
48043;DHT22;33988;47.992;8.820;2022-11-04T04:32:04;13.00;67.90
48043;DHT22;33988;47.992;8.820;2022-11-04T04:34:32;13.00;67.80
48043;DHT22;33988;47.992;8.820;2022-11-04T04:37:07;13.00;67.80
48043;DHT22;33988;47.992;8.820;2022-11-04T04:39:55;12.90;67.70
48043;DHT22;33988;47.992;8.820;2022-11-04T04:42:51;12.90;67.70
48043;DHT22;33988;47.992;8.820;2022-11-04T04:45:40;12.90;67.80
48043;DHT22;33988;47.992;8.820;2022-11-04T04:48:11;12.90;67.80
48043;DHT22;33988;47.992;8.820;2022-11-04T04:50:50;12.80;67.70
48043;DHT22;33988;47.992;8.820;2022-11-04T04:53:22;12.80;67.70
48043;DHT22;33988;47.992;8.820;2022-11-04T04:55:49;12.80;67.70
48043;DHT22;33988;47.992;8.820;2022-11-04T04:58:18;12.80;67.70
48043;DHT22;33988;47.992;8.820;2022-11-04T05:00:45;12.80;67.70
48043;DHT22;33988;47.992;8.820;2022-11-04T05:03:18;12.80;67.60
48043;DHT22;33988;47.992;8.820;2022-11-04T05:05:45;12.70;67.50
48043;DHT22;33988;47.992;8.820;2022-11-04T05:08:12;12.70;67.50
48043;DHT22;33988;47.992;8.820;2022-11-04T05:10:38;12.70;67.60
48043;DHT22;33988;47.992;8.820;2022-11-04T05:13:05;12.70;67.70
48043;DHT22;33988;47.992;8.820;2022-11-04T05:15:51;12.70;67.80
48043;DHT22;33988;47.992;8.820;2022-11-04T05:18:19;12.70;67.80
48043;DHT22;33988;47.992;8.820;2022-11-04T05:20:46;12.70;67.80
48043;DHT22;33988;47.992;8.820;2022-11-04T05:23:14;12.70;67.70
48043;DHT22;33988;47.992;8.820;2022-11-04T05:25:44;12.60;67.70
48043;DHT22;33988;47.992;8.820;2022-11-04T05:28:13;12.60;67.60
48043;DHT22;33988;47.992;8.820;2022-11-04T05:30:41;12.60;67.60
48043;DHT22;33988;47.992;8.820;2022-11-04T05:33:11;12.60;67.50
48043;DHT22;33988;47.992;8.820;2022-11-04T05:35:39;12.50;67.50
48043;DHT22;33988;47.992;8.820;2022-11-04T05:38:05;12.60;67.50
48043;DHT22;33988;47.992;8.820;2022-11-04T05:40:37;12.50;67.40
48043;DHT22;33988;47.992;8.820;2022-11-04T05:43:04;12.50;67.30
48043;DHT22;33988;47.992;8.820;2022-11-04T05:45:31;12.50;67.30
48043;DHT22;33988;47.992;8.820;2022-11-04T05:48:03;12.50;67.30
48043;DHT22;33988;47.992;8.820;2022-11-04T05:50:31;12.40;67.20
48043;DHT22;33988;47.992;8.820;2022-11-04T05:53:00;12.40;67.30
48043;DHT22;33988;47.992;8.820;2022-11-04T05:55:29;12.40;67.40
48043;DHT22;33988;47.992;8.820;2022-11-04T05:57:56;12.40;67.50
48043;DHT22;33988;47.992;8.820;2022-11-04T06:00:26;12.40;67.50
48043;DHT22;33988;47.992;8.820;2022-11-04T06:02:56;12.40;67.50
48043;DHT22;33988;47.992;8.820;2022-11-04T06:05:26;12.40;67.60
48043;DHT22;33988;47.992;8.820;2022-11-04T06:07:54;12.40;67.60
48043;DHT22;33988;47.992;8.820;2022-11-04T06:10:22;12.40;67.50
48043;DHT22;33988;47.992;8.820;2022-11-04T06:12:49;12.40;67.50
48043;DHT22;33988;47.992;8.820;2022-11-04T06:15:16;12.30;67.40
48043;DHT22;33988;47.992;8.820;2022-11-04T06:17:43;12.30;67.40
48043;DHT22;33988;47.992;8.820;2022-11-04T06:20:10;12.30;67.50
48043;DHT22;33988;47.992;8.820;2022-11-04T06:22:37;12.30;67.60
48043;DHT22;33988;47.992;8.820;2022-11-04T06:25:04;12.30;67.70
48043;DHT22;33988;47.992;8.820;2022-11-04T06:27:39;12.30;67.70
48043;DHT22;33988;47.992;8.820;2022-11-04T06:30:10;12.30;67.80
48043;DHT22;33988;47.992;8.820;2022-11-04T06:32:40;12.30;67.70
48043;DHT22;33988;47.992;8.820;2022-11-04T06:35:07;12.30;67.80
48043;DHT22;33988;47.992;8.820;2022-11-04T06:37:34;12.30;67.80
48043;DHT22;33988;47.992;8.820;2022-11-04T06:40:03;12.30;67.80
48043;DHT22;33988;47.992;8.820;2022-11-04T06:42:35;12.30;67.80
48043;DHT22;33988;47.992;8.820;2022-11-04T06:45:03;12.30;67.90
48043;DHT22;33988;47.992;8.820;2022-11-04T06:47:30;12.30;67.90
48043;DHT22;33988;47.992;8.820;2022-11-04T06:50:01;12.30;67.90
48043;DHT22;33988;47.992;8.820;2022-11-04T06:52:28;12.40;68.00
48043;DHT22;33988;47.992;8.820;2022-11-04T06:54:55;12.30;67.80
48043;DHT22;33988;47.992;8.820;2022-11-04T06:57:22;12.40;67.90
48043;DHT22;33988;47.992;8.820;2022-11-04T06:59:51;12.30;67.80
48043;DHT22;33988;47.992;8.820;2022-11-04T07:02:19;12.40;67.80
48043;DHT22;33988;47.992;8.820;2022-11-04T07:04:46;12.40;67.80
48043;DHT22;33988;47.992;8.820;2022-11-04T07:07:13;12.40;67.80
48043;DHT22;33988;47.992;8.820;2022-11-04T07:09:40;12.40;67.80
48043;DHT22;33988;47.992;8.820;2022-11-04T07:12:07;12.40;67.80
48043;DHT22;33988;47.992;8.820;2022-11-04T07:14:36;12.40;67.80
48043;DHT22;33988;47.992;8.820;2022-11-04T07:17:07;12.40;67.80
48043;DHT22;33988;47.992;8.820;2022-11-04T07:19:35;12.40;67.80
48043;DHT22;33988;47.992;8.820;2022-11-04T07:22:06;12.40;67.80
48043;DHT22;33988;47.992;8.820;2022-11-04T07:24:36;12.30;68.10
48043;DHT22;33988;47.992;8.820;2022-11-04T07:27:05;12.40;68.00
48043;DHT22;33988;47.992;8.820;2022-11-04T07:29:35;12.50;68.00
48043;DHT22;33988;47.992;8.820;2022-11-04T07:32:02;12.50;68.10
48043;DHT22;33988;47.992;8.820;2022-11-04T07:34:30;12.50;68.10
48043;DHT22;33988;47.992;8.820;2022-11-04T07:36:57;12.50;68.10
48043;DHT22;33988;47.992;8.820;2022-11-04T07:39:28;12.60;68.20
48043;DHT22;33988;47.992;8.820;2022-11-04T07:41:55;12.60;68.10
48043;DHT22;33988;47.992;8.820;2022-11-04T07:44:25;12.60;68.10
48043;DHT22;33988;47.992;8.820;2022-11-04T07:46:56;12.60;68.90
48043;DHT22;33988;47.992;8.820;2022-11-04T07:49:25;12.60;68.10
48043;DHT22;33988;47.992;8.820;2022-11-04T07:51:52;12.60;68.10
48043;DHT22;33988;47.992;8.820;2022-11-04T07:54:24;12.70;68.10
48043;DHT22;33988;47.992;8.820;2022-11-04T07:56:50;12.60;68.10
48043;DHT22;33988;47.992;8.820;2022-11-04T07:59:17;12.70;68.10
48043;DHT22;33988;47.992;8.820;2022-11-04T08:01:46;12.70;68.10
48043;DHT22;33988;47.992;8.820;2022-11-04T08:04:16;12.70;68.10
48043;DHT22;33988;47.992;8.820;2022-11-04T08:06:43;12.70;68.20
48043;DHT22;33988;47.992;8.820;2022-11-04T08:09:10;12.80;68.20
48043;DHT22;33988;47.992;8.820;2022-11-04T08:11:37;12.80;68.10
48043;DHT22;33988;47.992;8.820;2022-11-04T08:14:07;12.90;68.10
48043;DHT22;33988;47.992;8.820;2022-11-04T08:16:36;12.90;68.10
48043;DHT22;33988;47.992;8.820;2022-11-04T08:19:06;12.90;67.80
48043;DHT22;33988;47.992;8.820;2022-11-04T08:21:33;12.90;67.70
48043;DHT22;33988;47.992;8.820;2022-11-04T08:24:05;12.90;67.50
48043;DHT22;33988;47.992;8.820;2022-11-04T08:26:32;12.90;67.50
48043;DHT22;33988;47.992;8.820;2022-11-04T08:28:59;12.90;67.70
48043;DHT22;33988;47.992;8.820;2022-11-04T08:31:30;12.90;68.50
48043;DHT22;33988;47.992;8.820;2022-11-04T08:33:57;13.00;67.70
48043;DHT22;33988;47.992;8.820;2022-11-04T08:36:26;13.00;67.70
48043;DHT22;33988;47.992;8.820;2022-11-04T08:38:56;13.00;67.70
48043;DHT22;33988;47.992;8.820;2022-11-04T08:41:29;13.00;67.70
48043;DHT22;33988;47.992;8.820;2022-11-04T08:43:58;13.10;67.60
48043;DHT22;33988;47.992;8.820;2022-11-04T08:46:37;13.10;68.30
48043;DHT22;33988;47.992;8.820;2022-11-04T08:49:08;13.10;67.10
48043;DHT22;33988;47.992;8.820;2022-11-04T08:51:42;13.10;67.20
48043;DHT22;33988;47.992;8.820;2022-11-04T08:54:12;13.20;67.20
48043;DHT22;33988;47.992;8.820;2022-11-04T08:56:42;13.20;67.10
48043;DHT22;33988;47.992;8.820;2022-11-04T08:59:09;13.20;67.00
48043;DHT22;33988;47.992;8.820;2022-11-04T09:01:41;13.20;66.80
48043;DHT22;33988;47.992;8.820;2022-11-04T09:04:14;13.20;66.80
48043;DHT22;33988;47.992;8.820;2022-11-04T09:06:45;13.20;66.70
48043;DHT22;33988;47.992;8.820;2022-11-04T09:09:16;13.20;66.60
48043;DHT22;33988;47.992;8.820;2022-11-04T09:11:46;13.20;66.70
48043;DHT22;33988;47.992;8.820;2022-11-04T09:14:16;13.20;66.50
48043;DHT22;33988;47.992;8.820;2022-11-04T09:16:43;13.10;66.40
48043;DHT22;33988;47.992;8.820;2022-11-04T09:19:12;13.10;66.40
48043;DHT22;33988;47.992;8.820;2022-11-04T09:21:40;13.10;66.60
48043;DHT22;33988;47.992;8.820;2022-11-04T09:24:06;13.10;66.60
48043;DHT22;33988;47.992;8.820;2022-11-04T09:26:34;13.10;66.60
48043;DHT22;33988;47.992;8.820;2022-11-04T09:29:01;13.10;66.40
48043;DHT22;33988;47.992;8.820;2022-11-04T09:31:29;13.10;66.20
48043;DHT22;33988;47.992;8.820;2022-11-04T09:33:56;13.10;66.10
48043;DHT22;33988;47.992;8.820;2022-11-04T09:36:23;13.00;66.10
48043;DHT22;33988;47.992;8.820;2022-11-04T09:38:52;13.00;66.20
48043;DHT22;33988;47.992;8.820;2022-11-04T09:44:30;13.00;66.20
48043;DHT22;33988;47.992;8.820;2022-11-04T09:47:13;12.90;66.40
48043;DHT22;33988;47.992;8.820;2022-11-04T09:49:52;13.00;66.70
48043;DHT22;33988;47.992;8.820;2022-11-04T09:52:30;13.00;66.50
48043;DHT22;33988;47.992;8.820;2022-11-04T09:57:38;13.10;66.30
48043;DHT22;33988;47.992;8.820;2022-11-04T10:00:05;13.10;66.30
48043;DHT22;33988;47.992;8.820;2022-11-04T10:05:54;13.10;65.90
48043;DHT22;33988;47.992;8.820;2022-11-04T10:11:35;13.10;65.70
48043;DHT22;33988;47.992;8.820;2022-11-04T10:28:53;13.20;65.90
48043;DHT22;33988;47.992;8.820;2022-11-04T10:31:27;13.20;65.90
48043;DHT22;33988;47.992;8.820;2022-11-04T10:34:02;13.30;66.00
48043;DHT22;33988;47.992;8.820;2022-11-04T10:36:35;13.30;66.10
48043;DHT22;33988;47.992;8.820;2022-11-04T10:39:10;13.30;66.00
48043;DHT22;33988;47.992;8.820;2022-11-04T10:41:44;13.40;66.00
48043;DHT22;33988;47.992;8.820;2022-11-04T10:44:33;13.50;66.00
48043;DHT22;33988;47.992;8.820;2022-11-04T10:53:12;13.70;65.90
48043;DHT22;33988;47.992;8.820;2022-11-04T10:56:03;13.70;65.30
48043;DHT22;33988;47.992;8.820;2022-11-04T10:58:43;13.80;65.00
48043;DHT22;33988;47.992;8.820;2022-11-04T11:01:31;13.90;65.30
48043;DHT22;33988;47.992;8.820;2022-11-04T11:04:00;13.90;64.90
48043;DHT22;33988;47.992;8.820;2022-11-04T11:06:34;14.00;65.20
48043;DHT22;33988;47.992;8.820;2022-11-04T11:09:17;14.00;65.10
48043;DHT22;33988;47.992;8.820;2022-11-04T11:11:52;14.10;64.60
48043;DHT22;33988;47.992;8.820;2022-11-04T11:16:55;14.10;65.00
48043;DHT22;33988;47.992;8.820;2022-11-04T11:19:24;14.20;64.80
48043;DHT22;33988;47.992;8.820;2022-11-04T11:21:54;14.20;64.50
48043;DHT22;33988;47.992;8.820;2022-11-04T11:24:24;14.20;64.20
48043;DHT22;33988;47.992;8.820;2022-11-04T11:26:54;14.30;64.20
48043;DHT22;33988;47.992;8.820;2022-11-04T11:29:34;14.30;64.30
48043;DHT22;33988;47.992;8.820;2022-11-04T11:32:26;14.30;64.30
48043;DHT22;33988;47.992;8.820;2022-11-04T11:35:00;14.40;64.50
48043;DHT22;33988;47.992;8.820;2022-11-04T11:37:32;14.40;64.50
48043;DHT22;33988;47.992;8.820;2022-11-04T11:40:01;14.50;64.30
48043;DHT22;33988;47.992;8.820;2022-11-04T11:42:29;14.60;63.90
48043;DHT22;33988;47.992;8.820;2022-11-04T11:44:59;14.70;63.70
48043;DHT22;33988;47.992;8.820;2022-11-04T11:47:35;14.70;63.30
48043;DHT22;33988;47.992;8.820;2022-11-04T11:52:50;14.80;63.20
48043;DHT22;33988;47.992;8.820;2022-11-04T11:55:28;14.80;63.00
48043;DHT22;33988;47.992;8.820;2022-11-04T12:01:32;14.90;62.20
48043;DHT22;33988;47.992;8.820;2022-11-04T12:04:03;14.90;62.10
48043;DHT22;33988;47.992;8.820;2022-11-04T12:10:46;14.90;61.40
48043;DHT22;33988;47.992;8.820;2022-11-04T12:13:30;14.90;61.60
48043;DHT22;33988;47.992;8.820;2022-11-04T12:16:38;14.90;61.80
48043;DHT22;33988;47.992;8.820;2022-11-04T12:19:38;14.90;61.50
48043;DHT22;33988;47.992;8.820;2022-11-04T12:51:08;14.90;60.70
48043;DHT22;33988;47.992;8.820;2022-11-04T12:56:53;14.80;60.20
48043;DHT22;33988;47.992;8.820;2022-11-04T12:59:45;14.80;60.10
48043;DHT22;33988;47.992;8.820;2022-11-04T13:02:27;14.80;59.60
48043;DHT22;33988;47.992;8.820;2022-11-04T13:05:19;14.80;59.80
48043;DHT22;33988;47.992;8.820;2022-11-04T13:11:11;14.60;59.70
48043;DHT22;33988;47.992;8.820;2022-11-04T13:13:57;14.70;60.30
48043;DHT22;33988;47.992;8.820;2022-11-04T13:16:47;14.60;60.00
48043;DHT22;33988;47.992;8.820;2022-11-04T13:22:12;14.60;59.80
48043;DHT22;33988;47.992;8.820;2022-11-04T13:24:51;14.60;60.00
48043;DHT22;33988;47.992;8.820;2022-11-04T13:27:25;14.60;60.20
48043;DHT22;33988;47.992;8.820;2022-11-04T13:30:15;14.60;60.10
48043;DHT22;33988;47.992;8.820;2022-11-04T13:32:49;14.60;59.90
48043;DHT22;33988;47.992;8.820;2022-11-04T13:38:50;14.60;60.20
48043;DHT22;33988;47.992;8.820;2022-11-04T13:42:48;14.60;60.40
48043;DHT22;33988;47.992;8.820;2022-11-04T13:44:52;14.60;59.40
48043;DHT22;33988;47.992;8.820;2022-11-04T13:47:34;14.60;60.50
48043;DHT22;33988;47.992;8.820;2022-11-04T13:50:03;14.60;59.30
48043;DHT22;33988;47.992;8.820;2022-11-04T13:52:33;14.60;59.50
48043;DHT22;33988;47.992;8.820;2022-11-04T13:55:20;14.60;59.60
48043;DHT22;33988;47.992;8.820;2022-11-04T13:57:51;14.60;59.80
48043;DHT22;33988;47.992;8.820;2022-11-04T14:00:27;14.30;60.00
48043;DHT22;33988;47.992;8.820;2022-11-04T14:02:59;14.50;60.40
48043;DHT22;33988;47.992;8.820;2022-11-04T14:08:25;14.50;60.70
48043;DHT22;33988;47.992;8.820;2022-11-04T14:18:42;14.60;60.70
48043;DHT22;33988;47.992;8.820;2022-11-04T14:21:15;14.70;60.90
48043;DHT22;33988;47.992;8.820;2022-11-04T14:23:54;14.70;60.90
48043;DHT22;33988;47.992;8.820;2022-11-04T14:29:22;14.70;61.00
48043;DHT22;33988;47.992;8.820;2022-11-04T14:31:54;14.60;60.90
48043;DHT22;33988;47.992;8.820;2022-11-04T14:34:33;14.60;60.90
48043;DHT22;33988;47.992;8.820;2022-11-04T14:37:17;14.60;61.00
48043;DHT22;33988;47.992;8.820;2022-11-04T14:39:56;14.60;61.10
48043;DHT22;33988;47.992;8.820;2022-11-04T14:42:49;14.60;61.00
48043;DHT22;33988;47.992;8.820;2022-11-04T14:45:24;14.50;60.70
48043;DHT22;33988;47.992;8.820;2022-11-04T14:48:13;14.50;61.00
48043;DHT22;33988;47.992;8.820;2022-11-04T14:50:45;14.50;61.00
48043;DHT22;33988;47.992;8.820;2022-11-04T14:53:24;14.50;61.00
48043;DHT22;33988;47.992;8.820;2022-11-04T14:56:09;14.40;61.10
48043;DHT22;33988;47.992;8.820;2022-11-04T15:01:34;14.30;61.10
48043;DHT22;33988;47.992;8.820;2022-11-04T15:06:41;14.30;61.30
48043;DHT22;33988;47.992;8.820;2022-11-04T15:09:30;14.30;61.30
48043;DHT22;33988;47.992;8.820;2022-11-04T15:12:10;14.10;61.50
48043;DHT22;33988;47.992;8.820;2022-11-04T15:15:04;14.20;61.70
48043;DHT22;33988;47.992;8.820;2022-11-04T15:18:07;14.10;61.80
48043;DHT22;33988;47.992;8.820;2022-11-04T15:20:49;14.10;62.10
48043;DHT22;33988;47.992;8.820;2022-11-04T15:23:38;14.00;62.40
48043;DHT22;33988;47.992;8.820;2022-11-04T15:29:00;13.90;62.60
48043;DHT22;33988;47.992;8.820;2022-11-04T15:31:37;13.90;62.60
48043;DHT22;33988;47.992;8.820;2022-11-04T15:34:10;13.90;62.80
48043;DHT22;33988;47.992;8.820;2022-11-04T15:36:42;13.90;63.10
48043;DHT22;33988;47.992;8.820;2022-11-04T15:42:25;13.80;63.30
48043;DHT22;33988;47.992;8.820;2022-11-04T15:47:48;13.70;63.70
48043;DHT22;33988;47.992;8.820;2022-11-04T15:50:25;13.70;63.60
48043;DHT22;33988;47.992;8.820;2022-11-04T15:52:54;13.60;63.70
48043;DHT22;33988;47.992;8.820;2022-11-04T15:55:31;13.60;63.70
48043;DHT22;33988;47.992;8.820;2022-11-04T15:58:01;13.60;63.80
48043;DHT22;33988;47.992;8.820;2022-11-04T16:00:30;13.60;64.00
48043;DHT22;33988;47.992;8.820;2022-11-04T16:03:04;13.60;64.00
48043;DHT22;33988;47.992;8.820;2022-11-04T16:05:35;13.50;63.90
48043;DHT22;33988;47.992;8.820;2022-11-04T16:08:32;13.50;64.00
48043;DHT22;33988;47.992;8.820;2022-11-04T16:11:17;13.40;64.20
48043;DHT22;33988;47.992;8.820;2022-11-04T16:13:52;13.40;64.10
48043;DHT22;33988;47.992;8.820;2022-11-04T16:16:20;13.40;64.00
48043;DHT22;33988;47.992;8.820;2022-11-04T16:18:58;13.40;64.20
48043;DHT22;33988;47.992;8.820;2022-11-04T16:21:28;13.30;64.20
48043;DHT22;33988;47.992;8.820;2022-11-04T16:26:39;13.30;64.20
48043;DHT22;33988;47.992;8.820;2022-11-04T16:29:11;13.20;64.30
48043;DHT22;33988;47.992;8.820;2022-11-04T16:31:44;13.20;64.50
48043;DHT22;33988;47.992;8.820;2022-11-04T16:34:12;13.20;64.60
48043;DHT22;33988;47.992;8.820;2022-11-04T16:36:41;13.20;64.70
48043;DHT22;33988;47.992;8.820;2022-11-04T16:39:10;13.20;64.80
48043;DHT22;33988;47.992;8.820;2022-11-04T16:41:39;13.10;64.80
48043;DHT22;33988;47.992;8.820;2022-11-04T16:44:17;13.10;64.80
48043;DHT22;33988;47.992;8.820;2022-11-04T16:46:47;13.10;64.90
48043;DHT22;33988;47.992;8.820;2022-11-04T16:49:18;13.10;64.90
48043;DHT22;33988;47.992;8.820;2022-11-04T16:51:54;13.10;65.00
48043;DHT22;33988;47.992;8.820;2022-11-04T16:54:24;13.00;65.00
48043;DHT22;33988;47.992;8.820;2022-11-04T16:56:54;13.00;65.10
48043;DHT22;33988;47.992;8.820;2022-11-04T16:59:21;13.00;65.10
48043;DHT22;33988;47.992;8.820;2022-11-04T17:01:51;13.00;65.10
48043;DHT22;33988;47.992;8.820;2022-11-04T17:04:18;13.00;65.20
48043;DHT22;33988;47.992;8.820;2022-11-04T17:06:47;13.00;65.30
48043;DHT22;33988;47.992;8.820;2022-11-04T17:09:22;13.00;65.40
48043;DHT22;33988;47.992;8.820;2022-11-04T17:11:49;12.90;65.40
48043;DHT22;33988;47.992;8.820;2022-11-04T17:14:16;12.90;65.40
48043;DHT22;33988;47.992;8.820;2022-11-04T17:16:43;12.90;65.40
48043;DHT22;33988;47.992;8.820;2022-11-04T17:19:14;12.90;65.40
48043;DHT22;33988;47.992;8.820;2022-11-04T17:21:44;12.90;65.40
48043;DHT22;33988;47.992;8.820;2022-11-04T17:24:13;12.70;65.70
48043;DHT22;33988;47.992;8.820;2022-11-04T17:26:42;12.80;66.30
48043;DHT22;33988;47.992;8.820;2022-11-04T17:29:09;12.90;65.50
48043;DHT22;33988;47.992;8.820;2022-11-04T17:31:45;12.80;65.60
48043;DHT22;33988;47.992;8.820;2022-11-04T17:34:17;12.80;65.60
48043;DHT22;33988;47.992;8.820;2022-11-04T17:36:47;12.80;65.60
48043;DHT22;33988;47.992;8.820;2022-11-04T17:39:13;12.80;65.60
48043;DHT22;33988;47.992;8.820;2022-11-04T17:41:40;12.90;65.70
48043;DHT22;33988;47.992;8.820;2022-11-04T17:44:25;12.90;65.70
48043;DHT22;33988;47.992;8.820;2022-11-04T17:46:52;12.80;65.60
48043;DHT22;33988;47.992;8.820;2022-11-04T17:49:23;12.80;65.50
48043;DHT22;33988;47.992;8.820;2022-11-04T17:51:56;12.80;65.40
48043;DHT22;33988;47.992;8.820;2022-11-04T17:54:27;12.80;65.40
48043;DHT22;33988;47.992;8.820;2022-11-04T17:56:56;12.70;65.30
48043;DHT22;33988;47.992;8.820;2022-11-04T17:59:23;12.70;65.20
48043;DHT22;33988;47.992;8.820;2022-11-04T18:01:50;12.60;65.10
48043;DHT22;33988;47.992;8.820;2022-11-04T18:04:20;12.60;65.10
48043;DHT22;33988;47.992;8.820;2022-11-04T18:06:51;12.60;65.10
48043;DHT22;33988;47.992;8.820;2022-11-04T18:09:27;12.60;65.20
48043;DHT22;33988;47.992;8.820;2022-11-04T18:11:53;12.50;65.10
48043;DHT22;33988;47.992;8.820;2022-11-04T18:14:39;12.50;65.10
48043;DHT22;33988;47.992;8.820;2022-11-04T18:17:05;12.40;65.00
48043;DHT22;33988;47.992;8.820;2022-11-04T18:19:32;12.40;65.00
48043;DHT22;33988;47.992;8.820;2022-11-04T18:22:02;12.40;65.10
48043;DHT22;33988;47.992;8.820;2022-11-04T18:24:31;12.40;65.20
48043;DHT22;33988;47.992;8.820;2022-11-04T18:26:58;12.30;65.20
48043;DHT22;33988;47.992;8.820;2022-11-04T18:29:28;12.30;65.20
48043;DHT22;33988;47.992;8.820;2022-11-04T18:31:58;12.20;65.20
48043;DHT22;33988;47.992;8.820;2022-11-04T18:34:27;12.20;65.30
48043;DHT22;33988;47.992;8.820;2022-11-04T18:36:58;12.20;65.30
48043;DHT22;33988;47.992;8.820;2022-11-04T18:39:26;12.20;65.30
48043;DHT22;33988;47.992;8.820;2022-11-04T18:41:53;12.20;65.30
48043;DHT22;33988;47.992;8.820;2022-11-04T18:44:21;12.20;65.30
48043;DHT22;33988;47.992;8.820;2022-11-04T18:46:50;12.10;65.20
48043;DHT22;33988;47.992;8.820;2022-11-04T18:49:18;12.10;65.30